Time,TemperatureF,DewpointF,PressureIn,WindDirection,WindDirectionDegrees,WindSpeedMPH,WindSpeedGustMPH,Humidity,HourlyPrecipIn,Conditions,Clouds,dailyrainin,SoftwareType,DateUTC
2013-06-17 00:00:00,64.2,56.5,30.02,East,96,8.0,8.0,76,0.00,,,0.00,Wunderground v.1.15,2013-06-17 05:00:00,
2013-06-17 00:06:00,64.0,56.3,30.02,East,96,6.0,42.0,76,0.00,,,0.00,Wunderground v.1.15,2013-06-17 05:06:00,
2013-06-17 00:11:00,64.0,56.3,30.02,East,92,6.0,42.0,76,0.00,,,0.00,Wunderground v.1.15,2013-06-17 05:11:00,
2013-06-17 00:16:00,63.8,56.4,30.03,East,88,7.0,42.0,77,0.00,,,0.00,Wunderground v.1.15,2013-06-17 05:16:00,
2013-06-17 00:22:00,63.6,56.3,30.03,East,88,7.0,42.0,77,0.00,,,0.00,Wunderground v.1.15,2013-06-17 05:22:00,
2013-06-17 00:28:00,63.4,56.4,30.03,East,88,7.0,42.0,78,0.00,,,0.00,Wunderground v.1.15,2013-06-17 05:28:00,
2013-06-17 00:33:00,63.3,56.3,30.03,East,86,8.0,42.0,78,0.00,,,0.00,Wunderground v.1.15,2013-06-17 05:33:00,
2013-06-17 00:39:00,63.2,56.6,30.04,East,86,8.0,42.0,79,0.00,,,0.00,Wunderground v.1.15,2013-06-17 05:39:00,
2013-06-17 00:44:00,62.9,56.3,30.03,East,86,7.0,42.0,79,0.00,,,0.00,Wunderground v.1.15,2013-06-17 05:44:00,
2013-06-17 00:49:00,62.7,56.4,30.03,East,86,7.0,42.0,80,0.00,,,0.00,Wunderground v.1.15,2013-06-17 05:49:00,
2013-06-17 00:55:00,62.6,56.3,30.03,East,86,7.0,42.0,80,0.00,,,0.00,Wunderground v.1.15,2013-06-17 05:55:00,
2013-06-17 01:00:00,62.8,56.5,30.03,East,86,7.0,42.0,80,0.00,,,0.00,Wunderground v.1.15,2013-06-17 06:00:00,
2013-06-17 01:05:00,62.8,56.5,30.02,East,86,7.0,42.0,80,0.00,,,0.00,Wunderground v.1.15,2013-06-17 06:05:00,
2013-06-17 01:10:00,63.0,56.7,30.02,East,86,8.0,42.0,80,0.00,,,0.00,Wunderground v.1.15,2013-06-17 06:10:00,
2013-06-17 01:16:00,63.3,56.7,30.02,East,84,9.0,42.0,79,0.00,,,0.00,Wunderground v.1.15,2013-06-17 06:16:00,
2013-06-17 01:21:00,63.4,56.8,30.02,East,84,9.0,42.0,79,0.00,,,0.00,Wunderground v.1.15,2013-06-17 06:21:00,
2013-06-17 01:27:00,63.3,57.0,30.02,East,84,7.0,42.0,80,0.00,,,0.00,Wunderground v.1.15,2013-06-17 06:27:00,
2013-06-17 01:32:00,63.1,56.8,30.01,East,84,5.0,42.0,80,0.00,,,0.00,Wunderground v.1.15,2013-06-17 06:32:00,
2013-06-17 01:38:00,62.9,56.6,30.02,East,84,2.0,42.0,80,0.00,,,0.00,Wunderground v.1.15,2013-06-17 06:38:00,
2013-06-17 01:43:00,62.8,56.9,30.02,East,84,1.0,42.0,81,0.00,,,0.00,Wunderground v.1.15,2013-06-17 06:43:00,
2013-06-17 01:49:00,62.7,56.8,30.02,East,84,2.0,42.0,81,0.00,,,0.00,Wunderground v.1.15,2013-06-17 06:49:00,
2013-06-17 01:54:00,62.8,56.9,30.02,East,84,3.0,42.0,81,0.00,,,0.00,Wunderground v.1.15,2013-06-17 06:54:00,
2013-06-17 01:59:00,62.7,56.4,30.02,East,84,1.0,42.0,80,0.00,,,0.00,Wunderground v.1.15,2013-06-17 06:59:00,
2013-06-17 02:05:00,62.4,56.5,30.02,East,84,0.0,42.0,81,0.00,,,0.00,Wunderground v.1.15,2013-06-17 07:05:00,
2013-06-17 02:11:00,62.2,56.3,30.02,East,84,0.0,42.0,81,0.00,,,0.00,Wunderground v.1.15,2013-06-17 07:11:00,
2013-06-17 02:16:00,62.0,56.4,30.02,East,84,0.0,42.0,82,0.00,,,0.00,Wunderground v.1.15,2013-06-17 07:16:00,
2013-06-17 02:21:00,62.0,56.4,30.02,East,84,0.0,42.0,82,0.00,,,0.00,Wunderground v.1.15,2013-06-17 07:21:00,
2013-06-17 02:27:00,61.8,56.2,30.02,East,84,0.0,42.0,82,0.00,,,0.00,Wunderground v.1.15,2013-06-17 07:27:00,
2013-06-17 02:33:00,61.7,56.1,30.02,East,84,0.0,42.0,82,0.00,,,0.00,Wunderground v.1.15,2013-06-17 07:33:00,
2013-06-17 02:38:00,61.6,56.0,30.02,East,84,1.0,42.0,82,0.00,,,0.00,Wunderground v.1.15,2013-06-17 07:38:00,
2013-06-17 02:44:00,61.4,55.9,30.01,East,84,0.0,42.0,82,0.00,,,0.00,Wunderground v.1.15,2013-06-17 07:44:00,
2013-06-17 02:49:00,61.5,56.3,30.01,East,84,0.0,42.0,83,0.00,,,0.00,Wunderground v.1.15,2013-06-17 07:49:00,
2013-06-17 02:55:00,61.4,56.2,30.01,East,84,0.0,42.0,83,0.00,,,0.00,Wunderground v.1.15,2013-06-17 07:55:00,
2013-06-17 03:00:00,61.3,55.8,30.00,East,84,0.0,42.0,82,0.00,,,0.00,Wunderground v.1.15,2013-06-17 08:00:00,
2013-06-17 03:06:00,61.1,55.6,30.00,East,84,0.0,42.0,82,0.00,,,0.00,Wunderground v.1.15,2013-06-17 08:06:00,
2013-06-17 03:11:00,60.7,55.5,30.00,East,84,1.0,42.0,83,0.00,,,0.00,Wunderground v.1.15,2013-06-17 08:11:00,
2013-06-17 03:17:00,60.6,55.7,30.00,East,84,2.0,42.0,84,0.00,,,0.00,Wunderground v.1.15,2013-06-17 08:17:00,
2013-06-17 03:22:00,60.5,55.6,29.99,East,84,1.0,42.0,84,0.00,,,0.00,Wunderground v.1.15,2013-06-17 08:22:00,
2013-06-17 03:28:00,60.0,55.2,30.00,East,84,3.0,42.0,84,0.00,,,0.00,Wunderground v.1.15,2013-06-17 08:28:00,
2013-06-17 03:33:00,59.4,54.6,30.00,East,84,5.0,42.0,84,0.00,,,0.00,Wunderground v.1.15,2013-06-17 08:33:00,
2013-06-17 03:39:00,58.9,54.4,30.00,East,84,7.0,42.0,85,0.00,,,0.00,Wunderground v.1.15,2013-06-17 08:39:00,
2013-06-17 03:44:00,58.5,54.3,30.00,East,84,8.0,42.0,86,0.00,,,0.00,Wunderground v.1.15,2013-06-17 08:44:00,
2013-06-17 03:50:00,58.0,54.2,30.00,East,84,9.0,42.0,87,0.00,,,0.00,Wunderground v.1.15,2013-06-17 08:50:00,
2013-06-17 03:55:00,58.0,54.2,30.00,East,84,9.0,42.0,87,0.00,,,0.00,Wunderground v.1.15,2013-06-17 08:55:00,
2013-06-17 04:01:00,57.7,53.9,30.00,East,84,10.0,42.0,87,0.00,,,0.00,Wunderground v.1.15,2013-06-17 09:01:00,
2013-06-17 04:06:00,57.7,54.2,29.99,East,84,10.0,42.0,88,0.00,,,0.00,Wunderground v.1.15,2013-06-17 09:06:00,
2013-06-17 04:11:00,58.0,54.5,30.00,NW,317,10.0,42.0,88,0.00,,,0.00,Wunderground v.1.15,2013-06-17 09:11:00,
2013-06-17 04:17:00,57.5,54.0,30.00,NW,312,9.0,42.0,88,0.00,,,0.00,Wunderground v.1.15,2013-06-17 09:17:00,
2013-06-17 04:22:00,57.1,53.6,30.00,NW,312,8.0,42.0,88,0.00,,,0.00,Wunderground v.1.15,2013-06-17 09:22:00,
2013-06-17 04:28:00,56.7,53.2,30.00,NW,312,8.0,42.0,88,0.00,,,0.00,Wunderground v.1.15,2013-06-17 09:28:00,
2013-06-17 04:33:00,55.9,52.4,30.01,NW,309,8.0,42.0,88,0.00,,,0.00,Wunderground v.1.15,2013-06-17 09:33:00,
2013-06-17 04:39:00,55.5,52.0,30.01,NW,307,9.0,42.0,88,0.00,,,0.00,Wunderground v.1.15,2013-06-17 09:39:00,
2013-06-17 04:44:00,55.4,52.2,30.01,NW,307,9.0,42.0,89,0.00,,,0.00,Wunderground v.1.15,2013-06-17 09:44:00,
2013-06-17 04:50:00,55.3,52.1,30.02,NW,307,9.0,9.0,89,0.00,,,0.00,Wunderground v.1.15,2013-06-17 09:50:00,
2013-06-17 04:55:00,55.3,52.1,30.02,NW,307,9.0,42.0,89,0.00,,,0.00,Wunderground v.1.15,2013-06-17 09:55:00,
2013-06-17 05:01:00,55.1,51.9,30.03,NW,307,10.0,42.0,89,0.00,,,0.00,Wunderground v.1.15,2013-06-17 10:01:00,
2013-06-17 05:06:00,55.0,51.8,30.03,WNW,299,10.0,42.0,89,0.00,,,0.00,Wunderground v.1.15,2013-06-17 10:06:00,
2013-06-17 05:12:00,54.9,51.7,30.03,WNW,296,10.0,42.0,89,0.00,,,0.00,Wunderground v.1.15,2013-06-17 10:12:00,
2013-06-17 05:17:00,54.9,51.7,30.03,WNW,296,10.0,42.0,89,0.00,,,0.00,Wunderground v.1.15,2013-06-17 10:17:00,
2013-06-17 05:23:00,54.9,51.7,30.04,WNW,296,10.0,42.0,89,0.00,,,0.00,Wunderground v.1.15,2013-06-17 10:23:00,
2013-06-17 05:28:00,55.0,51.8,30.04,WNW,296,10.0,42.0,89,0.00,,,0.00,Wunderground v.1.15,2013-06-17 10:28:00,
2013-06-17 05:33:00,54.9,51.7,30.04,WNW,296,10.0,42.0,89,0.00,,,0.00,Wunderground v.1.15,2013-06-17 10:33:00,
2013-06-17 05:39:00,54.6,51.4,30.05,WNW,296,10.0,42.0,89,0.00,,,0.00,Wunderground v.1.15,2013-06-17 10:39:00,
2013-06-17 05:45:00,54.4,51.2,30.05,WNW,296,10.0,42.0,89,0.00,,,0.00,Wunderground v.1.15,2013-06-17 10:45:00,
2013-06-17 05:50:00,54.4,51.2,30.06,WNW,296,10.0,42.0,89,0.00,,,0.00,Wunderground v.1.15,2013-06-17 10:50:00,
2013-06-17 05:56:00,54.5,51.3,30.06,WNW,296,11.0,42.0,89,0.00,,,0.00,Wunderground v.1.15,2013-06-17 10:56:00,
2013-06-17 05:59:00,54.6,51.4,30.06,WNW,293,10.0,-999.0,89,0.00,,,0.00,Wunderground v.1.15,2013-06-17 10:59:00,
2013-06-17 06:01:00,54.5,51.3,30.06,WNW,296,10.0,42.0,89,0.00,,,0.00,Wunderground v.1.15,2013-06-17 11:01:00,
2013-06-17 06:04:00,54.6,51.4,30.06,WNW,293,10.0,-999.0,89,0.00,,,0.00,Wunderground v.1.15,2013-06-17 11:04:00,
2013-06-17 06:06:00,54.3,50.8,30.06,WNW,296,9.0,42.0,88,0.00,,,0.00,Wunderground v.1.15,2013-06-17 11:06:00,
2013-06-17 06:09:00,54.6,51.4,30.06,WNW,293,10.0,-999.0,89,0.00,,,0.00,Wunderground v.1.15,2013-06-17 11:09:00,
2013-06-17 06:12:00,54.2,50.7,30.06,WNW,296,9.0,42.0,88,0.00,,,0.00,Wunderground v.1.15,2013-06-17 11:12:00,
2013-06-17 06:14:00,54.6,51.4,30.06,WNW,293,10.0,-999.0,89,0.00,,,0.00,Wunderground v.1.15,2013-06-17 11:14:00,
2013-06-17 06:17:00,54.2,50.7,30.06,WNW,296,9.0,42.0,88,0.00,,,0.00,Wunderground v.1.15,2013-06-17 11:17:00,
2013-06-17 06:19:00,53.8,50.3,30.06,WNW,293,8.0,-999.0,88,0.00,,,0.00,Wunderground v.1.15,2013-06-17 11:19:00,
2013-06-17 06:23:00,54.1,50.6,30.06,WNW,296,9.0,42.0,88,0.00,,,0.00,Wunderground v.1.15,2013-06-17 11:23:00,
2013-06-17 06:24:00,53.8,50.3,30.06,WNW,293,8.0,-999.0,88,0.00,,,0.00,Wunderground v.1.15,2013-06-17 11:24:00,
2013-06-17 06:28:00,53.9,50.4,30.07,WNW,296,8.0,42.0,88,0.00,,,0.00,Wunderground v.1.15,2013-06-17 11:28:00,
2013-06-17 06:29:00,53.8,50.3,30.06,WNW,293,8.0,-999.0,88,0.00,,,0.00,Wunderground v.1.15,2013-06-17 11:29:00,
2013-06-17 06:34:00,54.0,50.8,30.06,WNW,296,6.0,42.0,89,0.00,,,0.00,Wunderground v.1.15,2013-06-17 11:34:00,
2013-06-17 06:39:00,54.1,50.9,30.07,WNW,296,6.0,42.0,89,0.00,,,0.00,Wunderground v.1.15,2013-06-17 11:39:00,
2013-06-17 06:44:00,53.8,50.3,30.06,WNW,293,8.0,-999.0,88,0.00,,,0.00,Wunderground v.1.15,2013-06-17 11:44:00,
2013-06-17 06:45:00,54.3,51.1,30.07,WNW,296,5.0,42.0,89,0.00,,,0.00,Wunderground v.1.15,2013-06-17 11:45:00,
2013-06-17 06:49:00,54.6,51.4,30.08,WNW,293,4.0,-999.0,89,0.00,,,0.00,Wunderground v.1.15,2013-06-17 11:49:00,
2013-06-17 06:50:00,54.5,51.3,30.08,WNW,296,4.0,4.0,89,0.00,,,0.00,Wunderground v.1.15,2013-06-17 11:50:00,
2013-06-17 06:54:00,54.6,51.4,30.08,WNW,293,4.0,-999.0,89,0.00,,,0.00,Wunderground v.1.15,2013-06-17 11:54:00,
2013-06-17 06:56:00,54.5,51.3,30.08,WNW,296,2.0,42.0,89,0.00,,,0.00,Wunderground v.1.15,2013-06-17 11:56:00,
2013-06-17 06:59:00,54.6,51.4,30.08,WNW,293,4.0,-999.0,89,0.00,,,0.00,Wunderground v.1.15,2013-06-17 11:59:00,
2013-06-17 07:01:00,54.8,51.6,30.08,WNW,296,0.0,42.0,89,0.00,,,0.00,Wunderground v.1.15,2013-06-17 12:01:00,
2013-06-17 07:04:00,54.6,51.4,30.08,WNW,293,4.0,-999.0,89,0.00,,,0.00,Wunderground v.1.15,2013-06-17 12:04:00,
2013-06-17 07:07:00,55.4,52.2,30.09,WNW,296,1.0,42.0,89,0.00,,,0.00,Wunderground v.1.15,2013-06-17 12:07:00,
2013-06-17 07:09:00,54.6,51.4,30.08,WNW,293,4.0,-999.0,89,0.00,,,0.00,Wunderground v.1.15,2013-06-17 12:09:00,
2013-06-17 07:12:00,55.8,52.3,30.10,East,80,4.0,42.0,88,0.00,,,0.00,Wunderground v.1.15,2013-06-17 12:12:00,
2013-06-17 07:14:00,54.6,51.4,30.08,WNW,293,4.0,-999.0,89,0.00,,,0.00,Wunderground v.1.15,2013-06-17 12:14:00,
2013-06-17 07:18:00,55.8,52.3,30.11,East,86,9.0,42.0,88,0.00,,,0.00,Wunderground v.1.15,2013-06-17 12:18:00,
2013-06-17 07:19:00,55.9,52.4,30.11,East,90,8.0,-999.0,88,0.00,,,0.00,Wunderground v.1.15,2013-06-17 12:19:00,
2013-06-17 07:23:00,55.8,52.3,30.11,East,92,11.0,42.0,88,0.00,,,0.00,Wunderground v.1.15,2013-06-17 12:23:00,
2013-06-17 07:24:00,55.9,52.4,30.11,East,90,8.0,-999.0,88,0.00,,,0.00,Wunderground v.1.15,2013-06-17 12:24:00,
2013-06-17 07:29:00,55.9,52.4,30.11,East,86,11.0,42.0,88,0.00,,,0.00,Wunderground v.1.15,2013-06-17 12:29:00,
2013-06-17 07:34:00,55.9,52.4,30.11,East,90,8.0,-999.0,88,0.00,,,0.00,Wunderground v.1.15,2013-06-17 12:34:00,
2013-06-17 07:35:00,56.0,52.5,30.12,East,89,10.0,42.0,88,0.00,,,0.00,Wunderground v.1.15,2013-06-17 12:35:00,
2013-06-17 07:39:00,55.9,52.4,30.11,East,90,8.0,-999.0,88,0.00,,,0.00,Wunderground v.1.15,2013-06-17 12:39:00,
2013-06-17 07:41:00,56.2,52.7,30.12,East,88,8.0,42.0,88,0.00,,,0.00,Wunderground v.1.15,2013-06-17 12:41:00,
2013-06-17 07:44:00,55.9,52.4,30.11,East,90,8.0,-999.0,88,0.00,,,0.00,Wunderground v.1.15,2013-06-17 12:44:00,
2013-06-17 07:46:00,56.4,52.9,30.12,East,90,7.0,42.0,88,0.00,,,0.00,Wunderground v.1.15,2013-06-17 12:46:00,
2013-06-17 07:49:00,58.0,54.8,30.11,East,90,6.0,-999.0,89,0.00,,,0.00,Wunderground v.1.15,2013-06-17 12:49:00,
2013-06-17 07:52:00,56.9,53.7,30.11,East,90,5.0,42.0,89,0.00,,,0.00,Wunderground v.1.15,2013-06-17 12:52:00,
2013-06-17 07:54:00,58.0,54.8,30.11,East,90,6.0,-999.0,89,0.00,,,0.00,Wunderground v.1.15,2013-06-17 12:54:00,
2013-06-17 07:57:00,57.7,54.5,30.11,East,90,3.0,42.0,89,0.00,,,0.00,Wunderground v.1.15,2013-06-17 12:57:00,
2013-06-17 07:59:00,58.0,54.8,30.11,East,90,6.0,-999.0,89,0.00,,,0.00,Wunderground v.1.15,2013-06-17 12:59:00,
2013-06-17 08:03:00,58.6,55.1,30.12,East,89,3.0,42.0,88,0.00,,,0.00,Wunderground v.1.15,2013-06-17 13:03:00,
2013-06-17 08:04:00,58.0,54.8,30.11,East,90,6.0,-999.0,89,0.00,,,0.00,Wunderground v.1.15,2013-06-17 13:04:00,
2013-06-17 08:08:00,59.1,55.2,30.11,East,85,5.0,42.0,87,0.00,,,0.00,Wunderground v.1.15,2013-06-17 13:08:00,
2013-06-17 08:09:00,58.0,54.8,30.11,East,90,6.0,-999.0,89,0.00,,,0.00,Wunderground v.1.15,2013-06-17 13:09:00,
2013-06-17 08:13:00,59.4,55.2,30.12,East,85,7.0,42.0,86,0.00,,,0.00,Wunderground v.1.15,2013-06-17 13:13:00,
2013-06-17 08:14:00,58.0,54.8,30.11,East,90,6.0,-999.0,89,0.00,,,0.00,Wunderground v.1.15,2013-06-17 13:14:00,
2013-06-17 08:19:00,60.1,55.9,30.12,East,85,2.0,42.0,86,0.00,,,0.00,Wunderground v.1.15,2013-06-17 13:19:00,
2013-06-17 08:24:00,60.7,56.2,30.12,East,85,1.0,42.0,85,0.00,,,0.00,Wunderground v.1.15,2013-06-17 13:24:00,
2013-06-17 08:29:00,61.0,55.8,30.12,East,85,3.0,42.0,83,0.00,,,0.00,Wunderground v.1.15,2013-06-17 13:29:00,
2013-06-17 08:34:00,61.0,55.8,30.12,East,90,4.0,-999.0,83,0.00,,,0.00,Wunderground v.1.15,2013-06-17 13:34:00,
2013-06-17 08:35:00,61.5,56.3,30.12,East,85,5.0,42.0,83,0.00,,,0.00,Wunderground v.1.15,2013-06-17 13:35:00,
2013-06-17 08:39:00,61.0,55.8,30.12,East,90,4.0,-999.0,83,0.00,,,0.00,Wunderground v.1.15,2013-06-17 13:39:00,
2013-06-17 08:40:00,61.9,56.3,30.12,East,85,4.0,42.0,82,0.00,,,0.00,Wunderground v.1.15,2013-06-17 13:40:00,
2013-06-17 08:44:00,61.0,55.8,30.12,East,90,4.0,-999.0,83,0.00,,,0.00,Wunderground v.1.15,2013-06-17 13:44:00,
2013-06-17 08:46:00,62.3,56.4,30.12,East,85,5.0,42.0,81,0.00,,,0.00,Wunderground v.1.15,2013-06-17 13:46:00,
2013-06-17 08:49:00,63.4,56.8,30.12,East,90,5.0,-999.0,79,0.00,,,0.00,Wunderground v.1.15,2013-06-17 13:49:00,
2013-06-17 08:52:00,63.0,56.7,30.11,East,85,6.0,42.0,80,0.00,,,0.00,Wunderground v.1.15,2013-06-17 13:52:00,
2013-06-17 08:54:00,63.4,56.8,30.12,East,90,5.0,-999.0,79,0.00,,,0.00,Wunderground v.1.15,2013-06-17 13:54:00,
2013-06-17 08:57:00,63.3,56.7,30.12,East,85,6.0,42.0,79,0.00,,,0.00,Wunderground v.1.15,2013-06-17 13:57:00,
2013-06-17 08:59:00,63.4,56.8,30.12,East,90,5.0,-999.0,79,0.00,,,0.00,Wunderground v.1.15,2013-06-17 13:59:00,
2013-06-17 09:03:00,63.5,56.5,30.12,East,85,5.0,42.0,78,0.00,,,0.00,Wunderground v.1.15,2013-06-17 14:03:00,
2013-06-17 09:04:00,63.4,56.8,30.12,East,90,5.0,-999.0,79,0.00,,,0.00,Wunderground v.1.15,2013-06-17 14:04:00,
2013-06-17 09:08:00,63.8,56.8,30.13,East,85,5.0,42.0,78,0.00,,,0.00,Wunderground v.1.15,2013-06-17 14:08:00,
2013-06-17 09:09:00,63.4,56.8,30.12,East,90,5.0,-999.0,79,0.00,,,0.00,Wunderground v.1.15,2013-06-17 14:09:00,
2013-06-17 09:13:00,64.2,56.8,30.13,East,85,4.0,42.0,77,0.00,,,0.00,Wunderground v.1.15,2013-06-17 14:13:00,
2013-06-17 09:14:00,63.4,56.8,30.12,East,90,5.0,-999.0,79,0.00,,,0.00,Wunderground v.1.15,2013-06-17 14:14:00,
2013-06-17 09:19:00,64.4,56.7,30.13,East,85,4.0,42.0,76,0.00,,,0.00,Wunderground v.1.15,2013-06-17 14:19:00,
2013-06-17 09:24:00,64.6,56.1,30.13,East,90,4.0,-999.0,74,0.00,,,0.00,Wunderground v.1.15,2013-06-17 14:24:00,
2013-06-17 09:25:00,64.5,56.4,30.13,East,85,4.0,42.0,75,0.00,,,0.00,Wunderground v.1.15,2013-06-17 14:25:00,
2013-06-17 09:29:00,64.6,56.1,30.13,East,90,4.0,-999.0,74,0.00,,,0.00,Wunderground v.1.15,2013-06-17 14:29:00,
2013-06-17 09:30:00,64.7,56.2,30.13,East,85,4.0,42.0,74,0.00,,,0.00,Wunderground v.1.15,2013-06-17 14:30:00,
2013-06-17 09:34:00,64.6,56.1,30.13,East,90,4.0,-999.0,74,0.00,,,0.00,Wunderground v.1.15,2013-06-17 14:34:00,
2013-06-17 09:35:00,65.3,56.4,30.13,East,85,3.0,42.0,73,0.00,,,0.00,Wunderground v.1.15,2013-06-17 14:35:00,
2013-06-17 09:39:00,64.6,56.1,30.13,East,90,4.0,-999.0,74,0.00,,,0.00,Wunderground v.1.15,2013-06-17 14:39:00,
2013-06-17 09:41:00,65.5,56.6,30.13,East,85,4.0,42.0,73,0.00,,,0.00,Wunderground v.1.15,2013-06-17 14:41:00,
2013-06-17 09:44:00,64.6,56.1,30.13,East,90,4.0,-999.0,74,0.00,,,0.00,Wunderground v.1.15,2013-06-17 14:44:00,
2013-06-17 09:47:00,66.4,56.7,30.12,East,85,4.0,42.0,71,0.00,,,0.00,Wunderground v.1.15,2013-06-17 14:47:00,
2013-06-17 09:49:00,66.7,56.6,30.12,East,90,5.0,-999.0,70,0.00,,,0.00,Wunderground v.1.15,2013-06-17 14:49:00,
2013-06-17 09:52:00,66.6,56.5,30.12,ENE,64,5.0,42.0,70,0.00,,,0.00,Wunderground v.1.15,2013-06-17 14:52:00,
2013-06-17 09:54:00,66.7,56.6,30.12,East,90,5.0,-999.0,70,0.00,,,0.00,Wunderground v.1.15,2013-06-17 14:54:00,
2013-06-17 09:57:00,66.5,56.4,30.12,ENE,64,6.0,42.0,70,0.00,,,0.00,Wunderground v.1.15,2013-06-17 14:57:00,
2013-06-17 09:59:00,66.7,56.6,30.12,East,90,5.0,-999.0,70,0.00,,,0.00,Wunderground v.1.15,2013-06-17 14:59:00,
2013-06-17 10:03:00,67.1,56.6,30.12,NE,53,6.0,42.0,69,0.00,,,0.00,Wunderground v.1.15,2013-06-17 15:03:00,
2013-06-17 10:04:00,66.7,56.6,30.12,East,90,5.0,-999.0,70,0.00,,,0.00,Wunderground v.1.15,2013-06-17 15:04:00,
2013-06-17 10:08:00,67.7,57.2,30.12,NE,53,5.0,42.0,69,0.00,,,0.00,Wunderground v.1.15,2013-06-17 15:08:00,
2013-06-17 10:09:00,66.7,56.6,30.12,East,90,5.0,-999.0,70,0.00,,,0.00,Wunderground v.1.15,2013-06-17 15:09:00,
2013-06-17 10:14:00,68.1,56.3,30.12,NE,44,5.0,42.0,66,0.00,,,0.00,Wunderground v.1.15,2013-06-17 15:14:00,
2013-06-17 10:19:00,68.3,56.5,30.13,NE,42,6.0,42.0,66,0.00,,,0.00,Wunderground v.1.15,2013-06-17 15:19:00,
2013-06-17 10:24:00,68.4,56.6,30.12,NE,45,5.0,-999.0,66,0.00,,,0.00,Wunderground v.1.15,2013-06-17 15:24:00,
2013-06-17 10:25:00,68.3,56.5,30.13,NE,41,6.0,42.0,66,0.00,,,0.00,Wunderground v.1.15,2013-06-17 15:25:00,
2013-06-17 10:29:00,68.4,56.6,30.12,NE,45,5.0,-999.0,66,0.00,,,0.00,Wunderground v.1.15,2013-06-17 15:29:00,
2013-06-17 10:30:00,68.4,56.6,30.12,NE,41,5.0,5.0,66,0.00,,,0.00,Wunderground v.1.15,2013-06-17 15:30:00,
2013-06-17 10:34:00,68.4,56.6,30.12,NE,45,5.0,-999.0,66,0.00,,,0.00,Wunderground v.1.15,2013-06-17 15:34:00,
2013-06-17 10:36:00,68.7,56.9,30.12,NE,41,4.0,42.0,66,0.00,,,0.00,Wunderground v.1.15,2013-06-17 15:36:00,
2013-06-17 10:39:00,68.4,56.6,30.12,NE,45,5.0,-999.0,66,0.00,,,0.00,Wunderground v.1.15,2013-06-17 15:39:00,
2013-06-17 10:41:00,68.8,56.6,30.12,NE,41,4.0,42.0,65,0.00,,,0.00,Wunderground v.1.15,2013-06-17 15:41:00,
2013-06-17 10:44:00,68.4,56.6,30.12,NE,45,5.0,-999.0,66,0.00,,,0.00,Wunderground v.1.15,2013-06-17 15:44:00,
2013-06-17 10:46:00,69.2,56.5,30.12,NE,34,6.0,42.0,64,0.00,,,0.00,Wunderground v.1.15,2013-06-17 15:46:00,
2013-06-17 10:49:00,70.3,56.7,30.12,NE,45,4.0,-999.0,62,0.00,,,0.00,Wunderground v.1.15,2013-06-17 15:49:00,
2013-06-17 10:52:00,69.6,56.9,30.12,NE,34,4.0,42.0,64,0.00,,,0.00,Wunderground v.1.15,2013-06-17 15:52:00,
2013-06-17 10:54:00,70.3,56.7,30.12,NE,45,4.0,-999.0,62,0.00,,,0.00,Wunderground v.1.15,2013-06-17 15:54:00,
2013-06-17 10:58:00,70.3,56.7,30.12,NE,34,3.0,42.0,62,0.00,,,0.00,Wunderground v.1.15,2013-06-17 15:58:00,
2013-06-17 10:59:00,70.3,56.7,30.12,NE,45,4.0,-999.0,62,0.00,,,0.00,Wunderground v.1.15,2013-06-17 15:59:00,
2013-06-17 11:03:00,70.2,56.6,30.11,NE,34,4.0,42.0,62,0.00,,,0.00,Wunderground v.1.15,2013-06-17 16:03:00,
2013-06-17 11:04:00,70.3,56.7,30.12,NE,45,4.0,-999.0,62,0.00,,,0.00,Wunderground v.1.15,2013-06-17 16:04:00,
2013-06-17 11:09:00,70.4,56.8,30.11,NE,34,4.0,42.0,62,0.00,,,0.00,Wunderground v.1.15,2013-06-17 16:09:00,
2013-06-17 11:14:00,70.9,57.2,30.12,NE,34,4.0,42.0,62,0.00,,,0.00,Wunderground v.1.15,2013-06-17 16:14:00,
2013-06-17 11:19:00,71.2,56.6,30.11,NE,45,5.0,-999.0,60,0.00,,,0.00,Wunderground v.1.15,2013-06-17 16:19:00,
2013-06-17 11:20:00,71.0,56.4,30.12,NE,34,5.0,42.0,60,0.00,,,0.00,Wunderground v.1.15,2013-06-17 16:20:00,
2013-06-17 11:24:00,71.2,56.6,30.11,NE,45,5.0,-999.0,60,0.00,,,0.00,Wunderground v.1.15,2013-06-17 16:24:00,
2013-06-17 11:25:00,71.2,56.6,30.12,NE,34,6.0,42.0,60,0.00,,,0.00,Wunderground v.1.15,2013-06-17 16:25:00,
2013-06-17 11:29:00,71.2,56.6,30.11,NE,45,5.0,-999.0,60,0.00,,,0.00,Wunderground v.1.15,2013-06-17 16:29:00,
2013-06-17 11:31:00,71.2,56.6,30.11,NNE,26,6.0,42.0,60,0.00,,,0.00,Wunderground v.1.15,2013-06-17 16:31:00,
2013-06-17 11:34:00,71.2,56.6,30.11,NE,45,5.0,-999.0,60,0.00,,,0.00,Wunderground v.1.15,2013-06-17 16:34:00,
2013-06-17 11:37:00,71.7,56.6,30.11,ENE,57,7.0,42.0,59,0.00,,,0.00,Wunderground v.1.15,2013-06-17 16:37:00,
2013-06-17 11:39:00,71.2,56.6,30.11,NE,45,5.0,-999.0,60,0.00,,,0.00,Wunderground v.1.15,2013-06-17 16:39:00,
2013-06-17 11:42:00,71.8,56.7,30.11,NE,44,7.0,42.0,59,0.00,,,0.00,Wunderground v.1.15,2013-06-17 16:42:00,
2013-06-17 11:48:00,71.9,56.3,30.11,NE,34,6.0,42.0,58,0.00,,,0.00,Wunderground v.1.15,2013-06-17 16:48:00,
2013-06-17 11:49:00,73.0,56.9,30.11,NNE,23,5.0,-999.0,57,0.00,,,0.00,Wunderground v.1.15,2013-06-17 16:49:00,
2013-06-17 11:53:00,72.6,57.0,30.11,NNE,22,5.0,42.0,58,0.00,,,0.00,Wunderground v.1.15,2013-06-17 16:53:00,
2013-06-17 11:54:00,73.0,56.9,30.11,NNE,23,5.0,-999.0,57,0.00,,,0.00,Wunderground v.1.15,2013-06-17 16:54:00,
2013-06-17 11:59:00,73.0,56.9,30.11,NNE,22,4.0,42.0,57,0.00,,,0.00,Wunderground v.1.15,2013-06-17 16:59:00,
2013-06-17 12:04:00,73.4,57.2,30.11,NNE,22,4.0,42.0,57,0.00,,,0.00,Wunderground v.1.15,2013-06-17 17:04:00,
2013-06-17 12:09:00,73.0,56.9,30.11,NNE,23,5.0,-999.0,57,0.00,,,0.00,Wunderground v.1.15,2013-06-17 17:09:00,
2013-06-17 12:10:00,74.0,57.8,30.11,NE,34,3.0,3.0,57,0.00,,,0.00,Wunderground v.1.15,2013-06-17 17:10:00,
2013-06-17 12:14:00,73.0,56.9,30.11,NNE,23,5.0,-999.0,57,0.00,,,0.00,Wunderground v.1.15,2013-06-17 17:14:00,
2013-06-17 12:16:00,74.3,57.6,30.11,NE,34,4.0,42.0,56,0.00,,,0.00,Wunderground v.1.15,2013-06-17 17:16:00,
2013-06-17 12:19:00,74.7,57.5,30.11,NE,45,3.0,-999.0,55,0.00,,,0.00,Wunderground v.1.15,2013-06-17 17:19:00,
2013-06-17 12:21:00,74.5,57.3,30.11,NE,34,3.0,5.0,55,0.00,,,0.00,Wunderground v.1.15,2013-06-17 17:21:00,
2013-06-17 12:24:00,74.7,57.5,30.11,NE,45,3.0,-999.0,55,0.00,,,0.00,Wunderground v.1.15,2013-06-17 17:24:00,
2013-06-17 12:26:00,74.8,57.5,30.11,NE,34,4.0,42.0,55,0.00,,,0.00,Wunderground v.1.15,2013-06-17 17:26:00,
2013-06-17 12:29:00,74.7,57.5,30.11,NE,45,3.0,-999.0,55,0.00,,,0.00,Wunderground v.1.15,2013-06-17 17:29:00,
2013-06-17 12:32:00,74.9,57.6,30.11,NE,34,3.0,42.0,55,0.00,,,0.00,Wunderground v.1.15,2013-06-17 17:32:00,
2013-06-17 12:34:00,74.7,57.5,30.11,NE,45,3.0,-999.0,55,0.00,,,0.00,Wunderground v.1.15,2013-06-17 17:34:00,
2013-06-17 12:38:00,75.0,57.2,30.11,NE,34,3.0,42.0,54,0.00,,,0.00,Wunderground v.1.15,2013-06-17 17:38:00,
2013-06-17 12:39:00,74.7,57.5,30.11,NE,45,3.0,-999.0,55,0.00,,,0.00,Wunderground v.1.15,2013-06-17 17:39:00,
2013-06-17 12:43:00,75.1,57.3,30.11,NE,34,5.0,42.0,54,0.00,,,0.00,Wunderground v.1.15,2013-06-17 17:43:00,
2013-06-17 12:44:00,74.7,57.5,30.11,NE,45,3.0,-999.0,55,0.00,,,0.00,Wunderground v.1.15,2013-06-17 17:44:00,
2013-06-17 12:49:00,75.5,57.2,30.11,ENE,62,5.0,42.0,53,0.00,,,0.00,Wunderground v.1.15,2013-06-17 17:49:00,
2013-06-17 12:54:00,75.6,57.3,30.10,ENE,62,5.0,42.0,53,0.00,,,0.00,Wunderground v.1.15,2013-06-17 17:54:00,
2013-06-17 12:59:00,76.2,57.3,30.10,NE,45,4.0,-999.0,52,0.00,,,0.00,Wunderground v.1.15,2013-06-17 17:59:00,
2013-06-17 13:00:00,76.2,57.3,30.11,ENE,66,4.0,42.0,52,0.00,,,0.00,Wunderground v.1.15,2013-06-17 18:00:00,
2013-06-17 13:04:00,76.2,57.3,30.10,NE,45,4.0,-999.0,52,0.00,,,0.00,Wunderground v.1.15,2013-06-17 18:04:00,
2013-06-17 13:05:00,76.3,57.4,30.11,NNE,24,6.0,42.0,52,0.00,,,0.00,Wunderground v.1.15,2013-06-17 18:05:00,
2013-06-17 13:09:00,76.2,57.3,30.10,NE,45,4.0,-999.0,52,0.00,,,0.00,Wunderground v.1.15,2013-06-17 18:09:00,
2013-06-17 13:10:00,76.2,57.3,30.11,NNE,30,5.0,42.0,52,0.00,,,0.00,Wunderground v.1.15,2013-06-17 18:10:00,
2013-06-17 13:14:00,76.2,57.3,30.10,NE,45,4.0,-999.0,52,0.00,,,0.00,Wunderground v.1.15,2013-06-17 18:14:00,
2013-06-17 13:16:00,76.1,56.7,30.10,NNE,30,6.0,42.0,51,0.00,,,0.00,Wunderground v.1.15,2013-06-17 18:16:00,
2013-06-17 13:19:00,76.9,57.4,30.10,NNE,23,5.0,-999.0,51,0.00,,,0.00,Wunderground v.1.15,2013-06-17 18:19:00,
2013-06-17 13:22:00,76.2,56.7,30.10,NNE,30,5.0,42.0,51,0.00,,,0.00,Wunderground v.1.15,2013-06-17 18:22:00,
2013-06-17 13:24:00,76.9,57.4,30.10,NNE,23,5.0,-999.0,51,0.00,,,0.00,Wunderground v.1.15,2013-06-17 18:24:00,
2013-06-17 13:27:00,76.6,57.7,30.10,NNE,30,4.0,42.0,52,0.00,,,0.00,Wunderground v.1.15,2013-06-17 18:27:00,
2013-06-17 13:29:00,76.9,57.4,30.10,NNE,23,5.0,-999.0,51,0.00,,,0.00,Wunderground v.1.15,2013-06-17 18:29:00,
2013-06-17 13:32:00,77.4,57.9,30.10,NE,54,3.0,42.0,51,0.00,,,0.00,Wunderground v.1.15,2013-06-17 18:32:00,
2013-06-17 13:34:00,76.9,57.4,30.10,NNE,23,5.0,-999.0,51,0.00,,,0.00,Wunderground v.1.15,2013-06-17 18:34:00,
2013-06-17 13:38:00,77.5,56.8,30.10,NE,50,6.0,42.0,49,0.00,,,0.00,Wunderground v.1.15,2013-06-17 18:38:00,
2013-06-17 13:39:00,76.9,57.4,30.10,NNE,23,5.0,-999.0,51,0.00,,,0.00,Wunderground v.1.15,2013-06-17 18:39:00,
2013-06-17 13:44:00,77.3,57.2,30.09,NE,50,6.0,42.0,50,0.00,,,0.00,Wunderground v.1.15,2013-06-17 18:44:00,
2013-06-17 13:49:00,77.5,56.3,30.09,NNE,16,6.0,42.0,48,0.00,,,0.00,Wunderground v.1.15,2013-06-17 18:49:00,
2013-06-17 13:54:00,77.6,57.5,30.09,NE,42,5.0,42.0,50,0.00,,,0.00,Wunderground v.1.15,2013-06-17 18:54:00,
2013-06-17 13:59:00,77.5,56.3,30.09,NE,45,7.0,-999.0,48,0.00,,,0.00,Wunderground v.1.15,2013-06-17 18:59:00,
2013-06-17 14:00:00,77.5,56.3,30.09,NNE,31,8.0,42.0,48,0.00,,,0.00,Wunderground v.1.15,2013-06-17 19:00:00,
2013-06-17 14:04:00,77.5,56.3,30.09,NE,45,7.0,-999.0,48,0.00,,,0.00,Wunderground v.1.15,2013-06-17 19:04:00,
2013-06-17 14:05:00,77.7,56.4,30.09,NNE,24,9.0,42.0,48,0.00,,,0.00,Wunderground v.1.15,2013-06-17 19:05:00,
2013-06-17 14:09:00,77.5,56.3,30.09,NE,45,7.0,-999.0,48,0.00,,,0.00,Wunderground v.1.15,2013-06-17 19:09:00,
2013-06-17 14:11:00,78.1,56.8,30.08,NNE,15,7.0,42.0,48,0.00,,,0.00,Wunderground v.1.15,2013-06-17 19:11:00,
2013-06-17 14:14:00,77.5,56.3,30.09,NE,45,7.0,-999.0,48,0.00,,,0.00,Wunderground v.1.15,2013-06-17 19:14:00,
2013-06-17 14:16:00,78.0,56.1,30.08,NNE,22,7.0,42.0,47,0.00,,,0.00,Wunderground v.1.15,2013-06-17 19:16:00,
2013-06-17 14:19:00,78.0,55.5,30.08,NNE,23,7.0,-999.0,46,0.00,,,0.00,Wunderground v.1.15,2013-06-17 19:19:00,
2013-06-17 14:22:00,78.3,57.0,30.08,NNE,24,5.0,42.0,48,0.00,,,0.00,Wunderground v.1.15,2013-06-17 19:22:00,
2013-06-17 14:24:00,78.0,55.5,30.08,NNE,23,7.0,-999.0,46,0.00,,,0.00,Wunderground v.1.15,2013-06-17 19:24:00,
2013-06-17 14:27:00,78.2,55.7,30.08,NNE,22,7.0,42.0,46,0.00,,,0.00,Wunderground v.1.15,2013-06-17 19:27:00,
2013-06-17 14:29:00,78.0,55.5,30.08,NNE,23,7.0,-999.0,46,0.00,,,0.00,Wunderground v.1.15,2013-06-17 19:29:00,
2013-06-17 14:33:00,78.0,54.9,30.08,NNE,26,8.0,42.0,45,0.00,,,0.00,Wunderground v.1.15,2013-06-17 19:33:00,
2013-06-17 14:34:00,78.0,55.5,30.08,NNE,23,7.0,-999.0,46,0.00,,,0.00,Wunderground v.1.15,2013-06-17 19:34:00,
2013-06-17 14:38:00,78.4,55.9,30.08,NE,49,6.0,42.0,46,0.00,,,0.00,Wunderground v.1.15,2013-06-17 19:38:00,
2013-06-17 14:39:00,78.0,55.5,30.08,NNE,23,7.0,-999.0,46,0.00,,,0.00,Wunderground v.1.15,2013-06-17 19:39:00,
2013-06-17 14:44:00,78.9,56.4,30.08,ENE,63,7.0,42.0,46,0.00,,,0.00,Wunderground v.1.15,2013-06-17 19:44:00,
2013-06-17 14:49:00,78.5,56.6,30.08,NNE,26,10.0,42.0,47,0.00,,,0.00,Wunderground v.1.15,2013-06-17 19:49:00,
2013-06-17 14:54:00,78.8,56.3,30.07,NE,45,8.0,-999.0,46,0.00,,,0.00,Wunderground v.1.15,2013-06-17 19:54:00,
2013-06-17 14:55:00,78.7,56.8,30.07,NE,36,9.0,42.0,47,0.00,,,0.00,Wunderground v.1.15,2013-06-17 19:55:00,
2013-06-17 14:59:00,78.8,56.3,30.07,NE,45,8.0,-999.0,46,0.00,,,0.00,Wunderground v.1.15,2013-06-17 19:59:00,
2013-06-17 15:00:00,78.9,56.4,30.07,NE,55,10.0,42.0,46,0.00,,,0.00,Wunderground v.1.15,2013-06-17 20:00:00,
2013-06-17 15:04:00,78.8,56.3,30.07,NE,45,8.0,-999.0,46,0.00,,,0.00,Wunderground v.1.15,2013-06-17 20:04:00,
2013-06-17 15:05:00,78.7,56.2,30.07,NNE,22,10.0,42.0,46,0.00,,,0.00,Wunderground v.1.15,2013-06-17 20:05:00,
2013-06-17 15:09:00,78.8,56.3,30.07,NE,45,8.0,-999.0,46,0.00,,,0.00,Wunderground v.1.15,2013-06-17 20:09:00,
2013-06-17 15:11:00,78.7,56.2,30.07,NE,55,10.0,42.0,46,0.00,,,0.00,Wunderground v.1.15,2013-06-17 20:11:00,
2013-06-17 15:14:00,78.8,56.3,30.07,NE,45,8.0,-999.0,46,0.00,,,0.00,Wunderground v.1.15,2013-06-17 20:14:00,
2013-06-17 15:16:00,79.5,57.5,30.07,NNE,25,11.0,42.0,47,0.00,,,0.00,Wunderground v.1.15,2013-06-17 20:16:00,
2013-06-17 15:19:00,78.8,56.9,30.07,NE,45,11.0,-999.0,47,0.00,,,0.00,Wunderground v.1.15,2013-06-17 20:19:00,
2013-06-17 15:22:00,78.8,56.9,30.07,NNE,31,11.0,16.0,47,0.00,,,0.00,Wunderground v.1.15,2013-06-17 20:22:00,
2013-06-17 15:24:00,78.8,56.9,30.07,NE,45,11.0,-999.0,47,0.00,,,0.00,Wunderground v.1.15,2013-06-17 20:24:00,
2013-06-17 15:27:00,78.6,56.7,30.07,NE,41,12.0,42.0,47,0.00,,,0.00,Wunderground v.1.15,2013-06-17 20:27:00,
2013-06-17 15:29:00,78.8,56.9,30.07,NE,45,11.0,-999.0,47,0.00,,,0.00,Wunderground v.1.15,2013-06-17 20:29:00,
2013-06-17 15:32:00,78.8,56.3,30.07,NE,38,10.0,42.0,46,0.00,,,0.00,Wunderground v.1.15,2013-06-17 20:32:00,
2013-06-17 15:34:00,78.8,56.9,30.07,NE,45,11.0,-999.0,47,0.00,,,0.00,Wunderground v.1.15,2013-06-17 20:34:00,
2013-06-17 15:38:00,78.9,57.0,30.07,NNE,25,6.0,42.0,47,0.00,,,0.00,Wunderground v.1.15,2013-06-17 20:38:00,
2013-06-17 15:39:00,78.8,56.9,30.07,NE,45,11.0,-999.0,47,0.00,,,0.00,Wunderground v.1.15,2013-06-17 20:39:00,
2013-06-17 15:43:00,79.3,56.1,30.07,NE,53,5.0,42.0,45,0.00,,,0.00,Wunderground v.1.15,2013-06-17 20:43:00,
2013-06-17 15:44:00,78.8,56.9,30.07,NE,45,11.0,-999.0,47,0.00,,,0.00,Wunderground v.1.15,2013-06-17 20:44:00,
2013-06-17 15:49:00,79.8,56.6,30.07,NE,49,6.0,42.0,45,0.00,,,0.00,Wunderground v.1.15,2013-06-17 20:49:00,
2013-06-17 15:54:00,79.6,56.4,30.08,ENE,65,7.0,42.0,45,0.00,,,0.00,Wunderground v.1.15,2013-06-17 20:54:00,
2013-06-17 15:59:00,79.9,56.7,30.08,NE,45,6.0,-999.0,45,0.00,,,0.00,Wunderground v.1.15,2013-06-17 20:59:00,
2013-06-17 16:00:00,80.0,56.1,30.07,ENE,76,6.0,42.0,44,0.00,,,0.00,Wunderground v.1.15,2013-06-17 21:00:00,
2013-06-17 16:04:00,79.9,56.7,30.08,NE,45,6.0,-999.0,45,0.00,,,0.00,Wunderground v.1.15,2013-06-17 21:04:00,
2013-06-17 16:05:00,80.0,56.1,30.08,East,89,6.0,42.0,44,0.00,,,0.00,Wunderground v.1.15,2013-06-17 21:05:00,
2013-06-17 16:09:00,79.9,56.7,30.08,NE,45,6.0,-999.0,45,0.00,,,0.00,Wunderground v.1.15,2013-06-17 21:09:00,
2013-06-17 16:11:00,79.9,56.7,30.08,East,89,5.0,42.0,45,0.00,,,0.00,Wunderground v.1.15,2013-06-17 21:11:00,
2013-06-17 16:14:00,79.9,56.7,30.08,NE,45,6.0,-999.0,45,0.00,,,0.00,Wunderground v.1.15,2013-06-17 21:14:00,
2013-06-17 16:16:00,79.8,56.6,30.08,East,89,2.0,42.0,45,0.00,,,0.00,Wunderground v.1.15,2013-06-17 21:16:00,
2013-06-17 16:19:00,79.9,56.7,30.06,East,90,4.0,-999.0,45,0.00,,,0.00,Wunderground v.1.15,2013-06-17 21:19:00,
2013-06-17 16:22:00,80.0,56.1,30.07,East,84,3.0,42.0,44,0.00,,,0.00,Wunderground v.1.15,2013-06-17 21:22:00,
2013-06-17 16:24:00,79.9,56.7,30.06,East,90,4.0,-999.0,45,0.00,,,0.00,Wunderground v.1.15,2013-06-17 21:24:00,
2013-06-17 16:27:00,79.8,56.6,30.07,East,84,5.0,42.0,45,0.00,,,0.00,Wunderground v.1.15,2013-06-17 21:27:00,
2013-06-17 16:29:00,79.9,56.7,30.06,East,90,4.0,-999.0,45,0.00,,,0.00,Wunderground v.1.15,2013-06-17 21:29:00,
2013-06-17 16:33:00,79.9,56.0,30.06,East,84,5.0,42.0,44,0.00,,,0.00,Wunderground v.1.15,2013-06-17 21:33:00,
2013-06-17 16:34:00,79.9,56.7,30.06,East,90,4.0,-999.0,45,0.00,,,0.00,Wunderground v.1.15,2013-06-17 21:34:00,
2013-06-17 16:38:00,80.0,56.1,30.05,ENE,78,7.0,42.0,44,0.00,,,0.00,Wunderground v.1.15,2013-06-17 21:38:00,
2013-06-17 16:39:00,79.9,56.7,30.06,East,90,4.0,-999.0,45,0.00,,,0.00,Wunderground v.1.15,2013-06-17 21:39:00,
2013-06-17 16:43:00,80.0,56.7,30.04,East,82,9.0,42.0,45,0.00,,,0.00,Wunderground v.1.15,2013-06-17 21:43:00,
2013-06-17 16:44:00,79.9,56.7,30.06,East,90,4.0,-999.0,45,0.00,,,0.00,Wunderground v.1.15,2013-06-17 21:44:00,
2013-06-17 16:49:00,79.4,56.2,30.03,East,100,10.0,42.0,45,0.00,,,0.00,Wunderground v.1.15,2013-06-17 21:49:00,
2013-06-17 16:54:00,79.1,56.5,30.02,East,89,11.0,42.0,46,0.00,,,0.00,Wunderground v.1.15,2013-06-17 21:54:00,
2013-06-17 16:59:00,79.0,57.6,30.02,East,90,10.0,-999.0,48,0.00,,,0.00,Wunderground v.1.15,2013-06-17 21:59:00,
2013-06-17 17:00:00,79.0,57.0,30.03,East,98,13.0,42.0,47,0.00,,,0.00,Wunderground v.1.15,2013-06-17 22:00:00,
2013-06-17 17:04:00,79.0,57.6,30.02,East,90,10.0,-999.0,48,0.00,,,0.00,Wunderground v.1.15,2013-06-17 22:04:00,
2013-06-17 17:05:00,79.0,57.0,30.04,East,94,12.0,42.0,47,0.00,,,0.00,Wunderground v.1.15,2013-06-17 22:05:00,
2013-06-17 17:09:00,79.0,57.6,30.02,East,90,10.0,-999.0,48,0.00,,,0.00,Wunderground v.1.15,2013-06-17 22:09:00,
2013-06-17 17:11:00,79.6,57.6,30.04,ESE,103,8.0,9.0,47,0.00,,,0.00,Wunderground v.1.15,2013-06-17 22:11:00,
2013-06-17 17:14:00,79.0,57.6,30.02,East,90,10.0,-999.0,48,0.00,,,0.00,Wunderground v.1.15,2013-06-17 22:14:00,
2013-06-17 17:16:00,79.3,56.1,30.05,East,101,7.0,42.0,45,0.00,,,0.00,Wunderground v.1.15,2013-06-17 22:16:00,
2013-06-17 17:19:00,79.7,56.5,30.05,East,90,6.0,-999.0,45,0.00,,,0.00,Wunderground v.1.15,2013-06-17 22:19:00,
2013-06-17 17:22:00,79.4,56.2,30.05,East,100,7.0,42.0,45,0.00,,,0.00,Wunderground v.1.15,2013-06-17 22:22:00,
2013-06-17 17:24:00,79.7,56.5,30.05,East,90,6.0,-999.0,45,0.00,,,0.00,Wunderground v.1.15,2013-06-17 22:24:00,
2013-06-17 17:27:00,79.6,56.4,30.05,ESE,108,4.0,42.0,45,0.00,,,0.00,Wunderground v.1.15,2013-06-17 22:27:00,
2013-06-17 17:29:00,79.7,56.5,30.05,East,90,6.0,-999.0,45,0.00,,,0.00,Wunderground v.1.15,2013-06-17 22:29:00,
2013-06-17 17:33:00,79.8,56.6,30.05,ESE,108,2.0,42.0,45,0.00,,,0.00,Wunderground v.1.15,2013-06-17 22:33:00,
2013-06-17 17:34:00,79.7,56.5,30.05,East,90,6.0,-999.0,45,0.00,,,0.00,Wunderground v.1.15,2013-06-17 22:34:00,
2013-06-17 17:38:00,79.5,56.9,30.05,ESE,108,4.0,42.0,46,0.00,,,0.00,Wunderground v.1.15,2013-06-17 22:38:00,
2013-06-17 17:39:00,79.7,56.5,30.05,East,90,6.0,-999.0,45,0.00,,,0.00,Wunderground v.1.15,2013-06-17 22:39:00,
2013-06-17 17:44:00,79.4,56.8,30.04,ESE,108,4.0,42.0,46,0.00,,,0.00,Wunderground v.1.15,2013-06-17 22:44:00,
2013-06-17 17:49:00,79.0,56.5,30.04,East,101,6.0,42.0,46,0.00,,,0.00,Wunderground v.1.15,2013-06-17 22:49:00,
2013-06-17 17:54:00,79.3,56.7,30.03,ESE,113,6.0,-999.0,46,0.00,,,0.00,Wunderground v.1.15,2013-06-17 22:54:00,
2013-06-17 17:55:00,79.1,56.5,30.03,East,86,8.0,42.0,46,0.00,,,0.00,Wunderground v.1.15,2013-06-17 22:55:00,
2013-06-17 17:59:00,79.3,56.7,30.03,ESE,113,6.0,-999.0,46,0.00,,,0.00,Wunderground v.1.15,2013-06-17 22:59:00,
2013-06-17 18:00:00,79.3,57.3,30.04,East,80,8.0,8.0,47,0.00,,,0.00,Wunderground v.1.15,2013-06-17 23:00:00,
2013-06-17 18:04:00,79.3,56.7,30.03,ESE,113,6.0,-999.0,46,0.00,,,0.00,Wunderground v.1.15,2013-06-17 23:04:00,
2013-06-17 18:06:00,79.9,56.7,30.03,East,80,8.0,42.0,45,0.00,,,0.00,Wunderground v.1.15,2013-06-17 23:06:00,
2013-06-17 18:09:00,79.3,56.7,30.03,ESE,113,6.0,-999.0,46,0.00,,,0.00,Wunderground v.1.15,2013-06-17 23:09:00,
2013-06-17 18:11:00,80.3,56.4,30.03,East,80,8.0,42.0,44,0.00,,,0.00,Wunderground v.1.15,2013-06-17 23:11:00,
2013-06-17 18:14:00,79.3,56.7,30.03,ESE,113,6.0,-999.0,46,0.00,,,0.00,Wunderground v.1.15,2013-06-17 23:14:00,
2013-06-17 18:17:00,80.2,56.9,30.04,ENE,75,8.0,42.0,45,0.00,,,0.00,Wunderground v.1.15,2013-06-17 23:17:00,
2013-06-17 18:19:00,80.7,56.8,30.04,East,90,6.0,-999.0,44,0.00,,,0.00,Wunderground v.1.15,2013-06-17 23:19:00,
2013-06-17 18:22:00,79.9,56.7,30.04,ENE,65,7.0,42.0,45,0.00,,,0.00,Wunderground v.1.15,2013-06-17 23:22:00,
2013-06-17 18:24:00,80.7,56.8,30.04,East,90,6.0,-999.0,44,0.00,,,0.00,Wunderground v.1.15,2013-06-17 23:24:00,
2013-06-17 18:28:00,80.4,56.5,30.04,ENE,65,5.0,42.0,44,0.00,,,0.00,Wunderground v.1.15,2013-06-17 23:28:00,
2013-06-17 18:29:00,80.7,56.8,30.04,East,90,6.0,-999.0,44,0.00,,,0.00,Wunderground v.1.15,2013-06-17 23:29:00,
2013-06-17 18:33:00,81.0,56.4,30.04,ENE,65,4.0,42.0,43,0.00,,,0.00,Wunderground v.1.15,2013-06-17 23:33:00,
2013-06-17 18:34:00,80.7,56.8,30.04,East,90,6.0,-999.0,44,0.00,,,0.00,Wunderground v.1.15,2013-06-17 23:34:00,
2013-06-17 18:39:00,81.0,56.4,30.04,ENE,65,5.0,42.0,43,0.00,,,0.00,Wunderground v.1.15,2013-06-17 23:39:00,
2013-06-17 18:44:00,80.8,56.2,30.04,ENE,65,5.0,42.0,43,0.00,,,0.00,Wunderground v.1.15,2013-06-17 23:44:00,
2013-06-17 18:49:00,80.9,55.7,30.04,ENE,65,5.0,42.0,42,0.00,,,0.00,Wunderground v.1.15,2013-06-17 23:49:00,
2013-06-17 18:54:00,80.9,55.7,30.04,ENE,68,5.0,-999.0,42,0.00,,,0.00,Wunderground v.1.15,2013-06-17 23:54:00,
2013-06-17 18:55:00,80.9,55.7,30.04,ENE,65,5.0,42.0,42,0.00,,,0.00,Wunderground v.1.15,2013-06-17 23:55:00,
2013-06-17 18:59:00,80.9,55.7,30.04,ENE,68,5.0,-999.0,42,0.00,,,0.00,Wunderground v.1.15,2013-06-17 23:59:00,
2013-06-17 19:00:00,80.9,56.3,30.04,ENE,65,5.0,42.0,43,0.00,,,0.00,Wunderground v.1.15,2013-06-18 00:00:00,
2013-06-17 19:04:00,80.9,55.7,30.04,ENE,68,5.0,-999.0,42,0.00,,,0.00,Wunderground v.1.15,2013-06-18 00:04:00,
2013-06-17 19:06:00,80.8,55.6,30.03,ENE,65,6.0,42.0,42,0.00,,,0.00,Wunderground v.1.15,2013-06-18 00:06:00,
2013-06-17 19:09:00,80.9,55.7,30.04,ENE,68,5.0,-999.0,42,0.00,,,0.00,Wunderground v.1.15,2013-06-18 00:09:00,
2013-06-17 19:11:00,80.5,55.9,30.04,ENE,65,6.0,42.0,43,0.00,,,0.00,Wunderground v.1.15,2013-06-18 00:11:00,
2013-06-17 19:14:00,80.9,55.7,30.04,ENE,68,5.0,-999.0,42,0.00,,,0.00,Wunderground v.1.15,2013-06-18 00:14:00,
2013-06-17 19:17:00,80.4,55.2,30.04,ENE,65,4.0,42.0,42,0.00,,,0.00,Wunderground v.1.15,2013-06-18 00:17:00,
2013-06-17 19:19:00,80.3,55.8,30.03,ENE,68,5.0,-999.0,43,0.00,,,0.00,Wunderground v.1.15,2013-06-18 00:19:00,
2013-06-17 19:23:00,80.3,55.8,30.03,ENE,65,4.0,42.0,43,0.00,,,0.00,Wunderground v.1.15,2013-06-18 00:23:00,
2013-06-17 19:24:00,80.3,55.8,30.03,ENE,68,5.0,-999.0,43,0.00,,,0.00,Wunderground v.1.15,2013-06-18 00:24:00,
2013-06-17 19:28:00,80.3,55.1,30.03,ENE,65,4.0,42.0,42,0.00,,,0.00,Wunderground v.1.15,2013-06-18 00:28:00,
2013-06-17 19:29:00,80.3,55.8,30.03,ENE,68,5.0,-999.0,43,0.00,,,0.00,Wunderground v.1.15,2013-06-18 00:29:00,
2013-06-17 19:34:00,80.2,55.0,30.03,ENE,65,4.0,42.0,42,0.00,,,0.00,Wunderground v.1.15,2013-06-18 00:34:00,
2013-06-17 19:39:00,80.1,54.9,30.03,ENE,65,5.0,42.0,42,0.00,,,0.00,Wunderground v.1.15,2013-06-18 00:39:00,
2013-06-17 19:44:00,80.3,55.8,30.03,ENE,68,5.0,-999.0,43,0.00,,,0.00,Wunderground v.1.15,2013-06-18 00:44:00,
2013-06-17 19:45:00,79.9,55.4,30.02,ENE,65,6.0,42.0,43,0.00,,,0.00,Wunderground v.1.15,2013-06-18 00:45:00,
2013-06-17 19:49:00,78.7,55.6,30.03,ENE,68,7.0,-999.0,45,0.00,,,0.00,Wunderground v.1.15,2013-06-18 00:49:00,
2013-06-17 19:50:00,79.2,56.0,30.02,East,101,8.0,42.0,45,0.00,,,0.00,Wunderground v.1.15,2013-06-18 00:50:00,
2013-06-17 19:54:00,78.7,55.6,30.03,ENE,68,7.0,-999.0,45,0.00,,,0.00,Wunderground v.1.15,2013-06-18 00:54:00,
2013-06-17 19:56:00,78.8,56.3,30.03,East,100,8.0,42.0,46,0.00,,,0.00,Wunderground v.1.15,2013-06-18 00:56:00,
2013-06-17 19:59:00,78.7,55.6,30.03,ENE,68,7.0,-999.0,45,0.00,,,0.00,Wunderground v.1.15,2013-06-18 00:59:00,
2013-06-17 20:01:00,78.7,56.8,30.04,East,100,6.0,42.0,47,0.00,,,0.00,Wunderground v.1.15,2013-06-18 01:01:00,
2013-06-17 20:04:00,78.7,55.6,30.03,ENE,68,7.0,-999.0,45,0.00,,,0.00,Wunderground v.1.15,2013-06-18 01:04:00,
2013-06-17 20:06:00,78.5,56.6,30.04,East,100,4.0,42.0,47,0.00,,,0.00,Wunderground v.1.15,2013-06-18 01:06:00,
2013-06-17 20:09:00,78.7,55.6,30.03,ENE,68,7.0,-999.0,45,0.00,,,0.00,Wunderground v.1.15,2013-06-18 01:09:00,
2013-06-17 20:12:00,78.5,56.0,30.04,East,100,3.0,42.0,46,0.00,,,0.00,Wunderground v.1.15,2013-06-18 01:12:00,
2013-06-17 20:14:00,78.7,55.6,30.03,ENE,68,7.0,-999.0,45,0.00,,,0.00,Wunderground v.1.15,2013-06-18 01:14:00,
2013-06-17 20:18:00,78.5,56.6,30.05,East,100,4.0,42.0,47,0.00,,,0.00,Wunderground v.1.15,2013-06-18 01:18:00,
2013-06-17 20:19:00,78.2,57.5,30.05,East,90,3.0,-999.0,49,0.00,,,0.00,Wunderground v.1.15,2013-06-18 01:19:00,
2013-06-17 20:24:00,78.4,57.1,30.04,East,100,4.0,42.0,48,0.00,,,0.00,Wunderground v.1.15,2013-06-18 01:24:00,
2013-06-17 20:29:00,78.2,57.5,30.05,East,90,3.0,-999.0,49,0.00,,,0.00,Wunderground v.1.15,2013-06-18 01:29:00,
2013-06-17 20:34:00,78.2,57.5,30.05,East,90,3.0,-999.0,49,0.00,,,0.00,Wunderground v.1.15,2013-06-18 01:34:00,
2013-06-17 20:39:00,78.2,57.5,30.05,East,90,3.0,-999.0,49,0.00,,,0.00,Wunderground v.1.15,2013-06-18 01:39:00,
2013-06-17 20:44:00,78.2,57.5,30.05,East,90,3.0,-999.0,49,0.00,,,0.00,Wunderground v.1.15,2013-06-18 01:44:00,
2013-06-17 20:49:00,76.7,57.2,30.05,East,90,6.0,-999.0,51,0.00,,,0.00,Wunderground v.1.15,2013-06-18 01:49:00,
2013-06-17 20:54:00,76.7,57.2,30.05,East,90,6.0,-999.0,51,0.00,,,0.00,Wunderground v.1.15,2013-06-18 01:54:00,
2013-06-17 20:59:00,76.7,57.2,30.05,East,90,6.0,-999.0,51,0.00,,,0.00,Wunderground v.1.15,2013-06-18 01:59:00,
2013-06-17 21:04:00,76.7,57.2,30.05,East,90,6.0,-999.0,51,0.00,,,0.00,Wunderground v.1.15,2013-06-18 02:04:00,
2013-06-17 21:09:00,76.7,57.2,30.05,East,90,6.0,-999.0,51,0.00,,,0.00,Wunderground v.1.15,2013-06-18 02:09:00,
2013-06-17 21:14:00,76.7,57.2,30.05,East,90,6.0,-999.0,51,0.00,,,0.00,Wunderground v.1.15,2013-06-18 02:14:00,
2013-06-17 21:19:00,75.8,57.4,30.05,East,90,8.0,-999.0,53,0.00,,,0.00,Wunderground v.1.15,2013-06-18 02:19:00,
2013-06-17 21:24:00,75.8,57.4,30.05,East,90,8.0,-999.0,53,0.00,,,0.00,Wunderground v.1.15,2013-06-18 02:24:00,
2013-06-17 21:29:00,75.8,57.4,30.05,East,90,8.0,-999.0,53,0.00,,,0.00,Wunderground v.1.15,2013-06-18 02:29:00,
2013-06-17 21:34:00,75.8,57.4,30.05,East,90,8.0,-999.0,53,0.00,,,0.00,Wunderground v.1.15,2013-06-18 02:34:00,
2013-06-17 21:39:00,75.8,57.4,30.05,East,90,8.0,-999.0,53,0.00,,,0.00,Wunderground v.1.15,2013-06-18 02:39:00,
2013-06-17 21:44:00,75.8,57.4,30.05,East,90,8.0,-999.0,53,0.00,,,0.00,Wunderground v.1.15,2013-06-18 02:44:00,
2013-06-17 21:49:00,74.3,57.6,30.06,ENE,68,9.0,-999.0,56,0.00,,,0.00,Wunderground v.1.15,2013-06-18 02:49:00,
2013-06-17 21:54:00,74.3,57.6,30.06,ENE,68,9.0,-999.0,56,0.00,,,0.00,Wunderground v.1.15,2013-06-18 02:54:00,
2013-06-17 21:59:00,74.3,57.6,30.06,ENE,68,9.0,-999.0,56,0.00,,,0.00,Wunderground v.1.15,2013-06-18 02:59:00,
2013-06-17 22:04:00,74.3,57.6,30.06,ENE,68,9.0,-999.0,56,0.00,,,0.00,Wunderground v.1.15,2013-06-18 03:04:00,
2013-06-17 22:09:00,74.3,57.6,30.06,ENE,68,9.0,-999.0,56,0.00,,,0.00,Wunderground v.1.15,2013-06-18 03:09:00,
2013-06-17 22:14:00,74.3,57.6,30.06,ENE,68,9.0,-999.0,56,0.00,,,0.00,Wunderground v.1.15,2013-06-18 03:14:00,
2013-06-17 22:19:00,73.3,57.6,30.07,NE,45,10.0,-999.0,58,0.00,,,0.00,Wunderground v.1.15,2013-06-18 03:19:00,
2013-06-17 22:24:00,73.3,57.6,30.07,NE,45,10.0,-999.0,58,0.00,,,0.00,Wunderground v.1.15,2013-06-18 03:24:00,
2013-06-17 22:29:00,73.3,57.6,30.07,NE,45,10.0,-999.0,58,0.00,,,0.00,Wunderground v.1.15,2013-06-18 03:29:00,
2013-06-17 22:34:00,73.3,57.6,30.07,NE,45,10.0,-999.0,58,0.00,,,0.00,Wunderground v.1.15,2013-06-18 03:34:00,
2013-06-17 22:39:00,73.3,57.6,30.07,NE,45,10.0,-999.0,58,0.00,,,0.00,Wunderground v.1.15,2013-06-18 03:39:00,
2013-06-17 22:44:00,73.3,57.6,30.07,NE,45,10.0,-999.0,58,0.00,,,0.00,Wunderground v.1.15,2013-06-18 03:44:00,
2013-06-17 22:49:00,71.3,58.1,30.07,NE,45,7.0,-999.0,63,0.00,,,0.00,Wunderground v.1.15,2013-06-18 03:49:00,
2013-06-17 22:54:00,71.3,58.1,30.07,NE,45,7.0,-999.0,63,0.00,,,0.00,Wunderground v.1.15,2013-06-18 03:54:00,
2013-06-17 22:59:00,71.3,58.1,30.07,NE,45,7.0,-999.0,63,0.00,,,0.00,Wunderground v.1.15,2013-06-18 03:59:00,
2013-06-17 23:04:00,71.3,58.1,30.07,NE,45,7.0,-999.0,63,0.00,,,0.00,Wunderground v.1.15,2013-06-18 04:04:00,
2013-06-17 23:09:00,71.3,58.1,30.07,NE,45,7.0,-999.0,63,0.00,,,0.00,Wunderground v.1.15,2013-06-18 04:09:00,
2013-06-17 23:14:00,71.3,58.1,30.07,NE,45,7.0,-999.0,63,0.00,,,0.00,Wunderground v.1.15,2013-06-18 04:14:00,
2013-06-17 23:19:00,70.0,59.0,30.07,NE,45,5.0,-999.0,68,0.00,,,0.00,Wunderground v.1.15,2013-06-18 04:19:00,
2013-06-17 23:24:00,70.0,59.0,30.07,NE,45,5.0,-999.0,68,0.00,,,0.00,Wunderground v.1.15,2013-06-18 04:24:00,
2013-06-17 23:29:00,70.0,59.0,30.07,NE,45,5.0,-999.0,68,0.00,,,0.00,Wunderground v.1.15,2013-06-18 04:29:00,
2013-06-17 23:34:00,70.0,59.0,30.07,NE,45,5.0,-999.0,68,0.00,,,0.00,Wunderground v.1.15,2013-06-18 04:34:00,
2013-06-17 23:39:00,70.0,59.0,30.07,NE,45,5.0,-999.0,68,0.00,,,0.00,Wunderground v.1.15,2013-06-18 04:39:00,
2013-06-17 23:44:00,70.0,59.0,30.07,NE,45,5.0,-999.0,68,0.00,,,0.00,Wunderground v.1.15,2013-06-18 04:44:00,
2013-06-17 23:49:00,70.2,59.6,30.07,NE,45,5.0,-999.0,69,0.00,,,0.00,Wunderground v.1.15,2013-06-18 04:49:00,
2013-06-17 23:54:00,70.2,59.6,30.07,NE,45,5.0,-999.0,69,0.00,,,0.00,Wunderground v.1.15,2013-06-18 04:54:00,
2013-06-17 23:59:00,70.2,59.6,30.07,NE,45,5.0,-999.0,69,0.00,,,0.00,Wunderground v.1.15,2013-06-18 04:59:00,